sensor_id;sensor_type;location;lat;lon;timestamp;temperature;humidity
66190;DHT22;52992;52.084;5.412;2023-04-25T00:01:54;10.40;64.80
66190;DHT22;52992;52.084;5.412;2023-04-25T00:04:21;10.40;64.80
66190;DHT22;52992;52.084;5.412;2023-04-25T00:06:48;10.40;64.90
66190;DHT22;52992;52.084;5.412;2023-04-25T00:09:15;10.30;64.80
66190;DHT22;52992;52.084;5.412;2023-04-25T00:11:42;10.20;64.70
66190;DHT22;52992;52.084;5.412;2023-04-25T00:14:09;10.20;64.70
66190;DHT22;52992;52.084;5.412;2023-04-25T00:16:36;10.20;64.50
66190;DHT22;52992;52.084;5.412;2023-04-25T00:19:03;10.30;64.40
66190;DHT22;52992;52.084;5.412;2023-04-25T00:21:31;10.50;64.40
66190;DHT22;52992;52.084;5.412;2023-04-25T00:23:58;10.50;64.20
66190;DHT22;52992;52.084;5.412;2023-04-25T00:26:25;10.60;64.00
66190;DHT22;52992;52.084;5.412;2023-04-25T00:28:52;10.70;63.90
66190;DHT22;52992;52.084;5.412;2023-04-25T00:31:19;10.70;63.80
66190;DHT22;52992;52.084;5.412;2023-04-25T00:33:47;10.70;63.60
66190;DHT22;52992;52.084;5.412;2023-04-25T00:36:15;10.70;63.80
66190;DHT22;52992;52.084;5.412;2023-04-25T00:38:42;10.70;63.80
66190;DHT22;52992;52.084;5.412;2023-04-25T00:41:09;10.70;63.80
66190;DHT22;52992;52.084;5.412;2023-04-25T00:43:37;10.70;63.90
66190;DHT22;52992;52.084;5.412;2023-04-25T00:46:04;10.80;63.90
66190;DHT22;52992;52.084;5.412;2023-04-25T00:48:31;10.80;63.90
66190;DHT22;52992;52.084;5.412;2023-04-25T00:50:59;10.80;63.70
66190;DHT22;52992;52.084;5.412;2023-04-25T00:53:27;10.80;63.70
66190;DHT22;52992;52.084;5.412;2023-04-25T00:55:55;10.80;63.30
66190;DHT22;52992;52.084;5.412;2023-04-25T00:58:22;10.80;63.40
66190;DHT22;52992;52.084;5.412;2023-04-25T01:00:51;10.80;63.50
66190;DHT22;52992;52.084;5.412;2023-04-25T01:03:21;10.80;63.50
66190;DHT22;52992;52.084;5.412;2023-04-25T01:05:49;10.80;63.50
66190;DHT22;52992;52.084;5.412;2023-04-25T01:08:17;10.80;63.60
66190;DHT22;52992;52.084;5.412;2023-04-25T01:10:44;10.80;63.60
66190;DHT22;52992;52.084;5.412;2023-04-25T01:13:11;10.80;63.70
66190;DHT22;52992;52.084;5.412;2023-04-25T01:15:37;10.70;63.70
66190;DHT22;52992;52.084;5.412;2023-04-25T01:18:05;10.70;63.70
66190;DHT22;52992;52.084;5.412;2023-04-25T01:20:33;10.70;63.70
66190;DHT22;52992;52.084;5.412;2023-04-25T01:23:01;10.60;63.80
66190;DHT22;52992;52.084;5.412;2023-04-25T01:25:32;10.60;63.80
66190;DHT22;52992;52.084;5.412;2023-04-25T01:28:00;10.60;63.90
66190;DHT22;52992;52.084;5.412;2023-04-25T01:30:29;10.50;64.00
66190;DHT22;52992;52.084;5.412;2023-04-25T01:32:56;10.40;64.00
66190;DHT22;52992;52.084;5.412;2023-04-25T01:35:23;10.40;64.20
66190;DHT22;52992;52.084;5.412;2023-04-25T01:37:53;10.30;64.30
66190;DHT22;52992;52.084;5.412;2023-04-25T01:40:21;10.20;64.20
66190;DHT22;52992;52.084;5.412;2023-04-25T01:42:49;10.20;64.20
66190;DHT22;52992;52.084;5.412;2023-04-25T01:45:17;10.10;64.20
66190;DHT22;52992;52.084;5.412;2023-04-25T01:47:45;10.10;64.30
66190;DHT22;52992;52.084;5.412;2023-04-25T01:50:17;10.10;64.20
66190;DHT22;52992;52.084;5.412;2023-04-25T01:52:45;10.00;64.10
66190;DHT22;52992;52.084;5.412;2023-04-25T01:55:12;10.00;64.30
66190;DHT22;52992;52.084;5.412;2023-04-25T01:57:49;9.90;64.30
66190;DHT22;52992;52.084;5.412;2023-04-25T02:00:18;9.90;64.30
66190;DHT22;52992;52.084;5.412;2023-04-25T02:02:45;9.80;64.30
66190;DHT22;52992;52.084;5.412;2023-04-25T02:05:21;9.80;64.20
66190;DHT22;52992;52.084;5.412;2023-04-25T02:07:48;9.80;64.90
66190;DHT22;52992;52.084;5.412;2023-04-25T02:10:15;9.70;64.00
66190;DHT22;52992;52.084;5.412;2023-04-25T02:13:02;9.70;64.00
66190;DHT22;52992;52.084;5.412;2023-04-25T02:15:49;9.60;63.80
66190;DHT22;52992;52.084;5.412;2023-04-25T02:18:18;9.60;63.90
66190;DHT22;52992;52.084;5.412;2023-04-25T02:20:47;9.50;63.80
66190;DHT22;52992;52.084;5.412;2023-04-25T02:23:13;9.50;63.80
66190;DHT22;52992;52.084;5.412;2023-04-25T02:25:42;9.40;64.60
66190;DHT22;52992;52.084;5.412;2023-04-25T02:28:09;9.40;64.10
66190;DHT22;52992;52.084;5.412;2023-04-25T02:30:36;9.40;64.20
66190;DHT22;52992;52.084;5.412;2023-04-25T02:33:04;9.40;64.20
66190;DHT22;52992;52.084;5.412;2023-04-25T02:35:31;9.40;64.10
66190;DHT22;52992;52.084;5.412;2023-04-25T02:37:58;9.30;64.00
66190;DHT22;52992;52.084;5.412;2023-04-25T02:40:25;9.30;64.70
66190;DHT22;52992;52.084;5.412;2023-04-25T02:42:53;9.30;64.10
66190;DHT22;52992;52.084;5.412;2023-04-25T02:45:20;9.40;64.00
66190;DHT22;52992;52.084;5.412;2023-04-25T02:47:47;9.40;63.90
66190;DHT22;52992;52.084;5.412;2023-04-25T02:50:14;9.40;63.90
66190;DHT22;52992;52.084;5.412;2023-04-25T02:52:41;9.40;64.00
66190;DHT22;52992;52.084;5.412;2023-04-25T02:55:13;9.40;64.00
66190;DHT22;52992;52.084;5.412;2023-04-25T02:57:41;9.40;64.10
66190;DHT22;52992;52.084;5.412;2023-04-25T03:00:12;9.40;64.10
66190;DHT22;52992;52.084;5.412;2023-04-25T03:02:40;9.40;64.10
66190;DHT22;52992;52.084;5.412;2023-04-25T03:05:08;9.50;64.20
66190;DHT22;52992;52.084;5.412;2023-04-25T03:07:36;9.50;64.00
66190;DHT22;52992;52.084;5.412;2023-04-25T03:10:03;9.60;64.00
66190;DHT22;52992;52.084;5.412;2023-04-25T03:12:32;9.60;64.00
66190;DHT22;52992;52.084;5.412;2023-04-25T03:14:59;9.60;64.00
66190;DHT22;52992;52.084;5.412;2023-04-25T03:17:26;9.70;64.00
66190;DHT22;52992;52.084;5.412;2023-04-25T03:19:53;9.70;63.90
66190;DHT22;52992;52.084;5.412;2023-04-25T03:22:21;9.60;63.60
66190;DHT22;52992;52.084;5.412;2023-04-25T03:24:48;9.60;63.80
66190;DHT22;52992;52.084;5.412;2023-04-25T03:27:15;9.50;64.10
66190;DHT22;52992;52.084;5.412;2023-04-25T03:29:42;9.50;64.40
66190;DHT22;52992;52.084;5.412;2023-04-25T03:32:09;9.40;64.30
66190;DHT22;52992;52.084;5.412;2023-04-25T03:34:36;9.40;64.20
66190;DHT22;52992;52.084;5.412;2023-04-25T03:37:04;9.40;64.10
66190;DHT22;52992;52.084;5.412;2023-04-25T03:39:35;9.40;64.10
66190;DHT22;52992;52.084;5.412;2023-04-25T03:42:02;9.40;64.10
66190;DHT22;52992;52.084;5.412;2023-04-25T03:44:29;9.40;64.00
66190;DHT22;52992;52.084;5.412;2023-04-25T03:46:57;9.50;64.00
66190;DHT22;52992;52.084;5.412;2023-04-25T03:49:24;9.60;63.60
66190;DHT22;52992;52.084;5.412;2023-04-25T03:52:00;9.60;63.50
66190;DHT22;52992;52.084;5.412;2023-04-25T03:54:32;9.60;63.30
66190;DHT22;52992;52.084;5.412;2023-04-25T03:57:06;9.70;63.30
66190;DHT22;52992;52.084;5.412;2023-04-25T03:59:36;9.80;63.20
66190;DHT22;52992;52.084;5.412;2023-04-25T04:02:03;9.80;63.10
66190;DHT22;52992;52.084;5.412;2023-04-25T04:04:32;9.80;63.10
66190;DHT22;52992;52.084;5.412;2023-04-25T04:07:00;9.90;63.10
66190;DHT22;52992;52.084;5.412;2023-04-25T04:09:30;9.90;63.00
66190;DHT22;52992;52.084;5.412;2023-04-25T04:11:59;9.90;62.80
66190;DHT22;52992;52.084;5.412;2023-04-25T04:14:30;9.90;62.80
66190;DHT22;52992;52.084;5.412;2023-04-25T04:16:56;9.90;62.80
66190;DHT22;52992;52.084;5.412;2023-04-25T04:19:26;9.90;62.70
66190;DHT22;52992;52.084;5.412;2023-04-25T04:22:04;9.90;62.70
66190;DHT22;52992;52.084;5.412;2023-04-25T04:24:31;10.00;62.60
66190;DHT22;52992;52.084;5.412;2023-04-25T04:27:02;10.00;62.70
66190;DHT22;52992;52.084;5.412;2023-04-25T04:29:40;10.00;62.90
66190;DHT22;52992;52.084;5.412;2023-04-25T04:32:28;10.00;62.90
66190;DHT22;52992;52.084;5.412;2023-04-25T04:34:57;10.00;62.90
66190;DHT22;52992;52.084;5.412;2023-04-25T04:37:25;9.90;62.80
66190;DHT22;52992;52.084;5.412;2023-04-25T04:39:51;9.90;62.90
66190;DHT22;52992;52.084;5.412;2023-04-25T04:42:30;9.90;62.90
66190;DHT22;52992;52.084;5.412;2023-04-25T04:44:58;9.90;62.90
66190;DHT22;52992;52.084;5.412;2023-04-25T04:47:44;9.90;62.80
66190;DHT22;52992;52.084;5.412;2023-04-25T04:50:16;9.90;62.60
66190;DHT22;52992;52.084;5.412;2023-04-25T04:53:04;9.90;62.50
66190;DHT22;52992;52.084;5.412;2023-04-25T04:55:50;10.00;62.20
66190;DHT22;52992;52.084;5.412;2023-04-25T04:58:36;10.00;62.00
66190;DHT22;52992;52.084;5.412;2023-04-25T05:01:21;10.10;62.10
66190;DHT22;52992;52.084;5.412;2023-04-25T05:04:14;10.10;61.90
66190;DHT22;52992;52.084;5.412;2023-04-25T05:06:47;10.20;61.70
66190;DHT22;52992;52.084;5.412;2023-04-25T05:09:27;10.20;61.80
66190;DHT22;52992;52.084;5.412;2023-04-25T05:12:08;10.20;61.90
66190;DHT22;52992;52.084;5.412;2023-04-25T05:14:58;10.30;62.00
66190;DHT22;52992;52.084;5.412;2023-04-25T05:17:38;10.30;62.00
66190;DHT22;52992;52.084;5.412;2023-04-25T05:20:34;10.40;62.50
66190;DHT22;52992;52.084;5.412;2023-04-25T05:23:17;10.40;61.70
66190;DHT22;52992;52.084;5.412;2023-04-25T05:25:53;10.40;61.70
66190;DHT22;52992;52.084;5.412;2023-04-25T05:28:55;10.40;61.90
66190;DHT22;52992;52.084;5.412;2023-04-25T05:31:40;10.40;61.80
66190;DHT22;52992;52.084;5.412;2023-04-25T05:34:10;10.40;61.90
66190;DHT22;52992;52.084;5.412;2023-04-25T05:36:56;10.40;61.80
66190;DHT22;52992;52.084;5.412;2023-04-25T05:39:23;10.50;61.60
66190;DHT22;52992;52.084;5.412;2023-04-25T05:42:03;10.50;61.30
66190;DHT22;52992;52.084;5.412;2023-04-25T05:44:45;10.60;61.10
66190;DHT22;52992;52.084;5.412;2023-04-25T05:47:22;10.60;60.80
66190;DHT22;52992;52.084;5.412;2023-04-25T05:50:10;10.70;60.40
66190;DHT22;52992;52.084;5.412;2023-04-25T05:52:47;10.80;60.20
66190;DHT22;52992;52.084;5.412;2023-04-25T05:55:28;10.90;60.20
66190;DHT22;52992;52.084;5.412;2023-04-25T05:57:57;10.90;59.90
66190;DHT22;52992;52.084;5.412;2023-04-25T06:00:24;10.90;59.80
66190;DHT22;52992;52.084;5.412;2023-04-25T06:02:51;11.00;59.70
66190;DHT22;52992;52.084;5.412;2023-04-25T06:05:18;11.10;59.30
66190;DHT22;52992;52.084;5.412;2023-04-25T06:07:46;11.20;59.10
66190;DHT22;52992;52.084;5.412;2023-04-25T06:10:14;11.30;58.90
66190;DHT22;52992;52.084;5.412;2023-04-25T06:12:42;11.30;58.50
66190;DHT22;52992;52.084;5.412;2023-04-25T06:15:09;11.40;58.10
66190;DHT22;52992;52.084;5.412;2023-04-25T06:17:54;11.40;57.90
66190;DHT22;52992;52.084;5.412;2023-04-25T06:20:21;11.50;58.40
66190;DHT22;52992;52.084;5.412;2023-04-25T06:22:51;11.50;57.70
66190;DHT22;52992;52.084;5.412;2023-04-25T06:25:26;11.60;57.30
66190;DHT22;52992;52.084;5.412;2023-04-25T06:27:53;11.70;57.10
66190;DHT22;52992;52.084;5.412;2023-04-25T06:30:21;11.70;57.10
66190;DHT22;52992;52.084;5.412;2023-04-25T06:32:56;11.70;56.40
66190;DHT22;52992;52.084;5.412;2023-04-25T06:35:23;11.70;56.80
66190;DHT22;52992;52.084;5.412;2023-04-25T06:37:50;11.70;57.60
66190;DHT22;52992;52.084;5.412;2023-04-25T06:40:21;11.70;57.00
66190;DHT22;52992;52.084;5.412;2023-04-25T06:42:48;11.50;57.30
66190;DHT22;52992;52.084;5.412;2023-04-25T06:45:50;11.50;57.00
66190;DHT22;52992;52.084;5.412;2023-04-25T06:48:19;11.60;57.50
66190;DHT22;52992;52.084;5.412;2023-04-25T06:50:46;11.90;56.90
66190;DHT22;52992;52.084;5.412;2023-04-25T06:53:13;12.30;56.20
66190;DHT22;52992;52.084;5.412;2023-04-25T06:55:43;12.60;54.90
66190;DHT22;52992;52.084;5.412;2023-04-25T06:58:19;12.80;53.70
66190;DHT22;52992;52.084;5.412;2023-04-25T07:01:11;12.60;52.20
66190;DHT22;52992;52.084;5.412;2023-04-25T07:03:38;12.30;52.60
66190;DHT22;52992;52.084;5.412;2023-04-25T07:06:11;12.10;53.10
66190;DHT22;52992;52.084;5.412;2023-04-25T07:08:38;11.90;51.50
66190;DHT22;52992;52.084;5.412;2023-04-25T07:11:05;11.90;52.60
66190;DHT22;52992;52.084;5.412;2023-04-25T07:13:32;11.80;52.70
66190;DHT22;52992;52.084;5.412;2023-04-25T07:16:00;12.00;52.90
66190;DHT22;52992;52.084;5.412;2023-04-25T07:18:29;12.10;52.80
66190;DHT22;52992;52.084;5.412;2023-04-25T07:20:56;12.00;53.00
66190;DHT22;52992;52.084;5.412;2023-04-25T07:23:23;12.00;52.90
66190;DHT22;52992;52.084;5.412;2023-04-25T07:25:50;11.90;53.50
66190;DHT22;52992;52.084;5.412;2023-04-25T07:28:20;12.00;54.30
66190;DHT22;52992;52.084;5.412;2023-04-25T07:30:47;12.30;54.10
66190;DHT22;52992;52.084;5.412;2023-04-25T07:33:14;12.80;53.50
66190;DHT22;52992;52.084;5.412;2023-04-25T07:35:41;13.20;51.10
66190;DHT22;52992;52.084;5.412;2023-04-25T07:38:08;13.50;49.60
66190;DHT22;52992;52.084;5.412;2023-04-25T07:40:37;13.90;48.40
66190;DHT22;52992;52.084;5.412;2023-04-25T07:43:07;14.20;46.40
66190;DHT22;52992;52.084;5.412;2023-04-25T07:45:53;14.40;45.80
66190;DHT22;52992;52.084;5.412;2023-04-25T07:48:21;14.50;44.20
66190;DHT22;52992;52.084;5.412;2023-04-25T07:50:51;14.60;43.70
66190;DHT22;52992;52.084;5.412;2023-04-25T07:53:18;14.60;42.80
66190;DHT22;52992;52.084;5.412;2023-04-25T07:55:55;14.60;42.10
66190;DHT22;52992;52.084;5.412;2023-04-25T07:58:22;14.40;41.20
66190;DHT22;52992;52.084;5.412;2023-04-25T08:00:54;14.30;40.90
66190;DHT22;52992;52.084;5.412;2023-04-25T08:03:36;14.20;40.90
66190;DHT22;52992;52.084;5.412;2023-04-25T08:06:08;14.10;41.60
66190;DHT22;52992;52.084;5.412;2023-04-25T08:08:44;14.00;42.00
66190;DHT22;52992;52.084;5.412;2023-04-25T08:11:16;13.90;41.80
66190;DHT22;52992;52.084;5.412;2023-04-25T08:13:43;14.10;42.60
66190;DHT22;52992;52.084;5.412;2023-04-25T08:16:11;14.10;40.20
66190;DHT22;52992;52.084;5.412;2023-04-25T08:18:38;14.10;40.70
66190;DHT22;52992;52.084;5.412;2023-04-25T08:21:05;14.30;40.90
66190;DHT22;52992;52.084;5.412;2023-04-25T08:23:33;14.30;38.40
66190;DHT22;52992;52.084;5.412;2023-04-25T08:26:03;14.40;38.20
66190;DHT22;52992;52.084;5.412;2023-04-25T08:28:34;14.40;38.70
66190;DHT22;52992;52.084;5.412;2023-04-25T08:31:01;14.60;38.10
66190;DHT22;52992;52.084;5.412;2023-04-25T08:33:36;14.80;38.60
66190;DHT22;52992;52.084;5.412;2023-04-25T08:36:32;14.80;37.50
66190;DHT22;52992;52.084;5.412;2023-04-25T08:39:17;14.50;37.50
66190;DHT22;52992;52.084;5.412;2023-04-25T08:42:00;14.10;38.80
66190;DHT22;52992;52.084;5.412;2023-04-25T08:44:30;13.80;38.60
66190;DHT22;52992;52.084;5.412;2023-04-25T08:46:57;13.80;39.40
66190;DHT22;52992;52.084;5.412;2023-04-25T08:49:28;13.90;38.70
66190;DHT22;52992;52.084;5.412;2023-04-25T08:52:02;13.90;38.80
66190;DHT22;52992;52.084;5.412;2023-04-25T08:54:30;14.10;39.30
66190;DHT22;52992;52.084;5.412;2023-04-25T08:57:03;14.70;39.70
66190;DHT22;52992;52.084;5.412;2023-04-25T08:59:32;15.40;35.70
66190;DHT22;52992;52.084;5.412;2023-04-25T09:02:01;15.60;34.00
66190;DHT22;52992;52.084;5.412;2023-04-25T09:04:31;15.70;31.60
66190;DHT22;52992;52.084;5.412;2023-04-25T09:06:58;15.70;33.00
66190;DHT22;52992;52.084;5.412;2023-04-25T09:09:25;15.60;34.60
66190;DHT22;52992;52.084;5.412;2023-04-25T09:11:54;15.50;34.00
66190;DHT22;52992;52.084;5.412;2023-04-25T09:14:22;15.40;33.30
66190;DHT22;52992;52.084;5.412;2023-04-25T09:17:12;15.30;32.60
66190;DHT22;52992;52.084;5.412;2023-04-25T09:20:13;15.80;32.70
66190;DHT22;52992;52.084;5.412;2023-04-25T09:22:39;16.30;33.10
66190;DHT22;52992;52.084;5.412;2023-04-25T09:25:11;17.30;33.00
66190;DHT22;52992;52.084;5.412;2023-04-25T09:27:53;18.00;32.20
66190;DHT22;52992;52.084;5.412;2023-04-25T09:30:30;17.80;31.40
66190;DHT22;52992;52.084;5.412;2023-04-25T09:33:10;17.20;32.20
66190;DHT22;52992;52.084;5.412;2023-04-25T09:35:42;16.40;34.50
66190;DHT22;52992;52.084;5.412;2023-04-25T09:38:15;15.90;36.10
66190;DHT22;52992;52.084;5.412;2023-04-25T09:40:54;15.50;36.60
66190;DHT22;52992;52.084;5.412;2023-04-25T09:43:37;15.50;36.70
66190;DHT22;52992;52.084;5.412;2023-04-25T09:46:09;15.80;36.60
66190;DHT22;52992;52.084;5.412;2023-04-25T09:48:49;15.90;35.20
66190;DHT22;52992;52.084;5.412;2023-04-25T09:51:26;15.60;33.80
66190;DHT22;52992;52.084;5.412;2023-04-25T09:53:58;15.10;34.60
66190;DHT22;52992;52.084;5.412;2023-04-25T09:56:39;14.80;35.50
66190;DHT22;52992;52.084;5.412;2023-04-25T09:59:07;14.50;36.70
66190;DHT22;52992;52.084;5.412;2023-04-25T10:01:40;14.30;37.70
66190;DHT22;52992;52.084;5.412;2023-04-25T10:04:19;14.30;38.10
66190;DHT22;52992;52.084;5.412;2023-04-25T10:06:56;14.40;38.00
66190;DHT22;52992;52.084;5.412;2023-04-25T10:09:25;14.20;37.50
66190;DHT22;52992;52.084;5.412;2023-04-25T10:11:53;14.00;37.40
66190;DHT22;52992;52.084;5.412;2023-04-25T10:14:21;13.90;37.40
66190;DHT22;52992;52.084;5.412;2023-04-25T10:16:49;13.80;38.30
66190;DHT22;52992;52.084;5.412;2023-04-25T10:19:16;13.90;38.20
66190;DHT22;52992;52.084;5.412;2023-04-25T10:21:51;14.30;38.10
66190;DHT22;52992;52.084;5.412;2023-04-25T10:24:19;14.80;35.60
66190;DHT22;52992;52.084;5.412;2023-04-25T10:26:47;15.60;35.00
66190;DHT22;52992;52.084;5.412;2023-04-25T10:29:25;16.60;33.60
66190;DHT22;52992;52.084;5.412;2023-04-25T10:31:52;17.20;31.30
66190;DHT22;52992;52.084;5.412;2023-04-25T10:34:24;17.30;31.10
66190;DHT22;52992;52.084;5.412;2023-04-25T10:36:52;16.90;31.50
66190;DHT22;52992;52.084;5.412;2023-04-25T10:39:24;16.30;31.70
66190;DHT22;52992;52.084;5.412;2023-04-25T10:41:58;15.80;32.10
66190;DHT22;52992;52.084;5.412;2023-04-25T10:44:29;15.50;33.10
66190;DHT22;52992;52.084;5.412;2023-04-25T10:46:57;15.60;32.90
66190;DHT22;52992;52.084;5.412;2023-04-25T10:49:57;16.10;32.30
66190;DHT22;52992;52.084;5.412;2023-04-25T10:52:32;18.30;29.70
66190;DHT22;52992;52.084;5.412;2023-04-25T10:55:03;19.80;27.10
66190;DHT22;52992;52.084;5.412;2023-04-25T10:57:40;22.70;23.90
66190;DHT22;52992;52.084;5.412;2023-04-25T11:02:41;24.60;21.70
66190;DHT22;52992;52.084;5.412;2023-04-25T11:05:09;22.70;22.50
66190;DHT22;52992;52.084;5.412;2023-04-25T11:07:49;21.00;25.10
66190;DHT22;52992;52.084;5.412;2023-04-25T11:10:33;20.10;25.90
66190;DHT22;52992;52.084;5.412;2023-04-25T11:13:02;19.10;27.10
66190;DHT22;52992;52.084;5.412;2023-04-25T11:15:29;18.90;27.60
66190;DHT22;52992;52.084;5.412;2023-04-25T11:17:56;19.20;27.60
66190;DHT22;52992;52.084;5.412;2023-04-25T11:20:26;18.50;27.70
66190;DHT22;52992;52.084;5.412;2023-04-25T11:22:57;17.50;29.20
66190;DHT22;52992;52.084;5.412;2023-04-25T11:25:25;16.50;32.00
66190;DHT22;52992;52.084;5.412;2023-04-25T11:27:54;15.60;34.00
66190;DHT22;52992;52.084;5.412;2023-04-25T11:30:22;15.20;35.40
66190;DHT22;52992;52.084;5.412;2023-04-25T11:32:49;15.30;35.40
66190;DHT22;52992;52.084;5.412;2023-04-25T11:35:16;19.70;28.30
66190;DHT22;52992;52.084;5.412;2023-04-25T11:37:44;25.30;21.70
66190;DHT22;52992;52.084;5.412;2023-04-25T11:40:11;28.30;18.60
66190;DHT22;52992;52.084;5.412;2023-04-25T11:42:47;27.30;19.30
66190;DHT22;52992;52.084;5.412;2023-04-25T11:45:15;24.40;21.70
66190;DHT22;52992;52.084;5.412;2023-04-25T11:47:42;21.80;24.20
66190;DHT22;52992;52.084;5.412;2023-04-25T11:50:09;19.80;26.60
66190;DHT22;52992;52.084;5.412;2023-04-25T11:52:41;18.50;28.00
66190;DHT22;52992;52.084;5.412;2023-04-25T11:55:12;17.40;29.50
66190;DHT22;52992;52.084;5.412;2023-04-25T11:57:41;16.90;30.40
66190;DHT22;52992;52.084;5.412;2023-04-25T12:00:13;16.80;30.80
66190;DHT22;52992;52.084;5.412;2023-04-25T12:02:46;17.60;30.50
66190;DHT22;52992;52.084;5.412;2023-04-25T12:05:15;21.00;26.10
66190;DHT22;52992;52.084;5.412;2023-04-25T12:08:13;27.00;19.40
66190;DHT22;52992;52.084;5.412;2023-04-25T12:10:42;31.20;15.20
66190;DHT22;52992;52.084;5.412;2023-04-25T12:13:26;33.20;14.50
66190;DHT22;52992;52.084;5.412;2023-04-25T12:15:55;35.60;12.90
66190;DHT22;52992;52.084;5.412;2023-04-25T12:18:24;34.40;14.30
66190;DHT22;52992;52.084;5.412;2023-04-25T12:20:54;30.10;16.00
66190;DHT22;52992;52.084;5.412;2023-04-25T12:23:28;25.70;18.60
66190;DHT22;52992;52.084;5.412;2023-04-25T12:25:55;21.90;21.70
66190;DHT22;52992;52.084;5.412;2023-04-25T12:28:24;19.60;25.10
66190;DHT22;52992;52.084;5.412;2023-04-25T12:33:26;17.80;27.30
66190;DHT22;52992;52.084;5.412;2023-04-25T12:35:54;17.70;27.30
66190;DHT22;52992;52.084;5.412;2023-04-25T12:40:49;18.60;27.20
66190;DHT22;52992;52.084;5.412;2023-04-25T12:43:16;18.80;27.20
66190;DHT22;52992;52.084;5.412;2023-04-25T12:45:55;18.30;27.50
66190;DHT22;52992;52.084;5.412;2023-04-25T12:48:22;17.80;28.20
66190;DHT22;52992;52.084;5.412;2023-04-25T12:50:49;17.40;28.20
66190;DHT22;52992;52.084;5.412;2023-04-25T12:53:21;17.10;27.60
66190;DHT22;52992;52.084;5.412;2023-04-25T12:55:48;16.80;27.70
66190;DHT22;52992;52.084;5.412;2023-04-25T12:58:16;16.60;27.50
66190;DHT22;52992;52.084;5.412;2023-04-25T13:00:44;16.50;29.00
66190;DHT22;52992;52.084;5.412;2023-04-25T13:03:11;16.40;28.70
66190;DHT22;52992;52.084;5.412;2023-04-25T13:05:58;17.30;28.60
66190;DHT22;52992;52.084;5.412;2023-04-25T13:08:25;18.80;26.30
66190;DHT22;52992;52.084;5.412;2023-04-25T13:10:53;19.20;25.70
66190;DHT22;52992;52.084;5.412;2023-04-25T13:13:19;21.00;24.30
66190;DHT22;52992;52.084;5.412;2023-04-25T13:15:46;21.60;24.10
66190;DHT22;52992;52.084;5.412;2023-04-25T13:18:14;22.00;24.30
66190;DHT22;52992;52.084;5.412;2023-04-25T13:20:41;21.90;24.20
66190;DHT22;52992;52.084;5.412;2023-04-25T13:23:08;21.80;24.50
66190;DHT22;52992;52.084;5.412;2023-04-25T13:25:35;20.90;25.70
66190;DHT22;52992;52.084;5.412;2023-04-25T13:28:02;19.70;24.90
66190;DHT22;52992;52.084;5.412;2023-04-25T13:30:29;18.30;26.80
66190;DHT22;52992;52.084;5.412;2023-04-25T13:32:56;17.10;28.20
66190;DHT22;52992;52.084;5.412;2023-04-25T13:35:24;16.20;29.20
66190;DHT22;52992;52.084;5.412;2023-04-25T13:37:51;15.70;29.10
66190;DHT22;52992;52.084;5.412;2023-04-25T13:40:18;15.80;29.60
66190;DHT22;52992;52.084;5.412;2023-04-25T13:42:44;18.60;26.40
66190;DHT22;52992;52.084;5.412;2023-04-25T13:45:12;22.30;22.90
66190;DHT22;52992;52.084;5.412;2023-04-25T13:47:38;24.60;18.70
66190;DHT22;52992;52.084;5.412;2023-04-25T13:50:06;25.10;18.70
66190;DHT22;52992;52.084;5.412;2023-04-25T13:52:33;25.10;18.50
66190;DHT22;52992;52.084;5.412;2023-04-25T13:55:01;25.60;18.90
66190;DHT22;52992;52.084;5.412;2023-04-25T13:57:33;25.20;18.60
66190;DHT22;52992;52.084;5.412;2023-04-25T14:00:00;22.90;20.70
66190;DHT22;52992;52.084;5.412;2023-04-25T14:02:32;20.50;23.00
66190;DHT22;52992;52.084;5.412;2023-04-25T14:04:59;18.60;25.80
66190;DHT22;52992;52.084;5.412;2023-04-25T14:07:26;17.60;27.20
66190;DHT22;52992;52.084;5.412;2023-04-25T14:09:53;18.70;27.00
66190;DHT22;52992;52.084;5.412;2023-04-25T14:12:20;19.90;24.80
66190;DHT22;52992;52.084;5.412;2023-04-25T14:14:46;19.50;25.30
66190;DHT22;52992;52.084;5.412;2023-04-25T14:17:13;18.60;26.00
66190;DHT22;52992;52.084;5.412;2023-04-25T14:19:40;18.90;26.20
66190;DHT22;52992;52.084;5.412;2023-04-25T14:22:12;19.60;24.70
66190;DHT22;52992;52.084;5.412;2023-04-25T14:24:38;18.80;25.50
66190;DHT22;52992;52.084;5.412;2023-04-25T14:27:05;17.60;27.50
66190;DHT22;52992;52.084;5.412;2023-04-25T14:29:32;16.70;28.80
66190;DHT22;52992;52.084;5.412;2023-04-25T14:31:59;16.00;29.50
66190;DHT22;52992;52.084;5.412;2023-04-25T14:34:26;15.60;28.50
66190;DHT22;52992;52.084;5.412;2023-04-25T14:36:53;15.10;29.30
66190;DHT22;52992;52.084;5.412;2023-04-25T14:39:20;14.80;29.30
66190;DHT22;52992;52.084;5.412;2023-04-25T14:41:47;14.60;29.50
66190;DHT22;52992;52.084;5.412;2023-04-25T14:44:14;14.50;30.10
66190;DHT22;52992;52.084;5.412;2023-04-25T14:46:42;14.70;30.10
66190;DHT22;52992;52.084;5.412;2023-04-25T14:49:09;15.30;30.60
66190;DHT22;52992;52.084;5.412;2023-04-25T14:51:35;15.70;29.30
66190;DHT22;52992;52.084;5.412;2023-04-25T14:54:02;16.10;29.80
66190;DHT22;52992;52.084;5.412;2023-04-25T14:56:29;16.40;29.00
66190;DHT22;52992;52.084;5.412;2023-04-25T14:58:57;16.20;28.80
66190;DHT22;52992;52.084;5.412;2023-04-25T15:01:24;15.90;29.70
66190;DHT22;52992;52.084;5.412;2023-04-25T15:03:51;15.60;29.90
66190;DHT22;52992;52.084;5.412;2023-04-25T15:06:19;15.50;29.60
66190;DHT22;52992;52.084;5.412;2023-04-25T15:08:45;15.20;29.50
66190;DHT22;52992;52.084;5.412;2023-04-25T15:11:12;15.20;30.50
66190;DHT22;52992;52.084;5.412;2023-04-25T15:13:39;15.00;29.50
66190;DHT22;52992;52.084;5.412;2023-04-25T15:16:07;14.90;30.10
66190;DHT22;52992;52.084;5.412;2023-04-25T15:18:34;14.60;30.30
66190;DHT22;52992;52.084;5.412;2023-04-25T15:21:01;14.50;31.00
66190;DHT22;52992;52.084;5.412;2023-04-25T15:23:28;14.40;31.20
66190;DHT22;52992;52.084;5.412;2023-04-25T15:25:55;14.60;30.00
66190;DHT22;52992;52.084;5.412;2023-04-25T15:28:22;14.90;29.80
66190;DHT22;52992;52.084;5.412;2023-04-25T15:30:49;15.10;29.50
66190;DHT22;52992;52.084;5.412;2023-04-25T15:33:17;15.40;30.10
66190;DHT22;52992;52.084;5.412;2023-04-25T15:35:44;15.40;30.60
66190;DHT22;52992;52.084;5.412;2023-04-25T15:38:11;15.30;29.80
66190;DHT22;52992;52.084;5.412;2023-04-25T15:40:38;15.00;30.40
66190;DHT22;52992;52.084;5.412;2023-04-25T15:43:04;14.60;31.50
66190;DHT22;52992;52.084;5.412;2023-04-25T15:45:32;14.40;32.50
66190;DHT22;52992;52.084;5.412;2023-04-25T15:47:59;14.40;32.20
66190;DHT22;52992;52.084;5.412;2023-04-25T15:50:27;14.40;32.70
66190;DHT22;52992;52.084;5.412;2023-04-25T15:52:54;14.40;32.60
66190;DHT22;52992;52.084;5.412;2023-04-25T15:55:21;14.30;32.40
66190;DHT22;52992;52.084;5.412;2023-04-25T15:57:48;14.20;31.80
66190;DHT22;52992;52.084;5.412;2023-04-25T16:00:17;14.10;32.20
66190;DHT22;52992;52.084;5.412;2023-04-25T16:02:45;14.10;31.50